createdAt,value
2023-04-13T00:00:36.068Z,993.21
2023-04-13T00:01:36.065Z,993.27
2023-04-13T00:02:36.134Z,993.25
2023-04-13T00:03:36.842Z,993.18
2023-04-13T00:04:36.705Z,993.18
2023-04-13T00:05:36.770Z,993.27
2023-04-13T00:06:36.023Z,993.25
2023-04-13T00:07:35.994Z,993.19
2023-04-13T00:08:35.990Z,993.20
2023-04-13T00:09:36.008Z,993.08
2023-04-13T00:10:36.674Z,993.12
2023-04-13T00:11:35.966Z,993.15
2023-04-13T00:12:35.936Z,993.16
2023-04-13T00:13:36.606Z,993.09
2023-04-13T00:14:36.595Z,993.08
2023-04-13T00:15:36.592Z,993.10
2023-04-13T00:16:36.572Z,993.01
2023-04-13T00:17:35.942Z,993.06
2023-04-13T00:18:35.880Z,993.00
2023-04-13T00:19:36.547Z,993.08
2023-04-13T00:20:35.890Z,993.02
2023-04-13T00:21:35.873Z,992.97
2023-04-13T00:22:36.517Z,993.04
2023-04-13T00:23:36.506Z,992.95
2023-04-13T00:24:35.815Z,992.98
2023-04-13T00:25:36.481Z,992.94
2023-04-13T00:26:35.805Z,993.00
2023-04-13T00:27:36.462Z,992.96
2023-04-13T00:28:35.772Z,992.91
2023-04-13T00:29:36.441Z,992.90
2023-04-13T00:30:35.789Z,992.94
2023-04-13T00:31:35.749Z,992.85
2023-04-13T00:32:35.777Z,992.89
2023-04-13T00:33:35.712Z,992.90
2023-04-13T00:34:35.708Z,992.91
2023-04-13T00:35:35.693Z,992.87
2023-04-13T00:36:35.711Z,992.88
2023-04-13T00:37:36.365Z,992.89
2023-04-13T00:38:35.687Z,992.88
2023-04-13T00:39:36.340Z,992.86
2023-04-13T00:40:36.326Z,992.81
2023-04-13T00:41:35.652Z,992.82
2023-04-13T00:42:35.623Z,992.80
2023-04-13T00:43:36.307Z,992.77
2023-04-13T00:44:36.287Z,992.69
2023-04-13T00:45:37.519Z,992.69
2023-04-13T00:46:36.290Z,992.76
2023-04-13T00:47:35.640Z,992.76
2023-04-13T00:48:36.249Z,992.82
2023-04-13T00:49:36.236Z,992.73
2023-04-13T00:50:35.578Z,992.66
2023-04-13T00:51:35.518Z,992.72
2023-04-13T00:52:35.507Z,992.80
2023-04-13T00:53:36.201Z,992.71
2023-04-13T00:54:35.517Z,992.70
2023-04-13T00:55:36.141Z,992.74
2023-04-13T00:56:36.150Z,992.72
2023-04-13T00:57:35.478Z,992.78
2023-04-13T00:58:36.135Z,992.66
2023-04-13T00:59:36.117Z,992.65
2023-04-13T01:00:35.431Z,992.63
2023-04-13T01:01:36.144Z,992.72
2023-04-13T01:02:35.504Z,992.64
2023-04-13T01:03:35.431Z,992.60
2023-04-13T01:04:35.407Z,992.63
2023-04-13T01:05:36.029Z,992.53
2023-04-13T01:06:36.040Z,992.59
2023-04-13T01:07:36.034Z,992.55
2023-04-13T01:08:35.331Z,992.54
2023-04-13T01:09:35.324Z,992.60
2023-04-13T01:10:35.331Z,992.59
2023-04-13T01:11:35.989Z,992.52
2023-04-13T01:12:35.977Z,992.54
2023-04-13T01:13:35.991Z,992.55
2023-04-13T01:14:35.959Z,992.54
2023-04-13T01:15:35.969Z,992.49
2023-04-13T01:16:35.938Z,992.52
2023-04-13T01:17:35.299Z,992.47
2023-04-13T01:18:35.239Z,992.41
2023-04-13T01:19:35.235Z,992.48
2023-04-13T01:20:35.871Z,992.39
2023-04-13T01:21:35.889Z,992.42
2023-04-13T01:22:35.876Z,992.40
2023-04-13T01:23:35.860Z,992.37
2023-04-13T01:24:35.162Z,992.35
2023-04-13T01:25:35.819Z,992.39
2023-04-13T01:26:35.824Z,992.36
2023-04-13T01:27:35.144Z,992.38
2023-04-13T01:28:35.113Z,992.38
2023-04-13T01:29:35.797Z,992.28
2023-04-13T01:30:35.771Z,992.30
2023-04-13T01:31:35.155Z,992.34
2023-04-13T01:32:35.794Z,992.29
2023-04-13T01:33:35.070Z,992.37
2023-04-13T01:34:35.073Z,992.35
2023-04-13T01:35:35.047Z,992.37
2023-04-13T01:36:35.028Z,992.17
2023-04-13T01:37:36.961Z,992.28
2023-04-13T01:38:35.001Z,992.25
2023-04-13T01:39:35.668Z,992.26
2023-04-13T01:40:35.013Z,992.22
2023-04-13T01:41:35.664Z,992.30
2023-04-13T01:42:34.982Z,992.16
2023-04-13T01:43:34.989Z,992.28
2023-04-13T01:44:35.627Z,992.28
2023-04-13T01:45:34.928Z,992.29
2023-04-13T01:46:34.981Z,992.32
2023-04-13T01:47:34.930Z,992.26
2023-04-13T01:48:35.586Z,992.24
2023-04-13T01:49:35.555Z,992.24
2023-04-13T01:50:34.880Z,992.26
2023-04-13T01:51:34.876Z,992.22
2023-04-13T01:52:34.860Z,992.19
2023-04-13T01:53:35.536Z,992.21
2023-04-13T01:54:34.833Z,992.21
2023-04-13T01:55:35.488Z,992.11
2023-04-13T01:56:34.814Z,992.10
2023-04-13T01:57:34.817Z,992.24
2023-04-13T01:58:35.478Z,992.20
2023-04-13T01:59:35.471Z,992.22
2023-04-13T02:00:35.453Z,992.22
2023-04-13T02:01:35.441Z,992.17
2023-04-13T02:02:35.549Z,992.22
2023-04-13T02:03:35.507Z,992.24
2023-04-13T02:04:35.409Z,992.15
2023-04-13T02:05:35.381Z,992.15
2023-04-13T02:06:34.711Z,992.17
2023-04-13T02:07:35.389Z,992.10
2023-04-13T02:08:34.687Z,992.12
2023-04-13T02:09:34.685Z,992.13
2023-04-13T02:10:35.327Z,992.15
2023-04-13T02:11:35.350Z,992.12
2023-04-13T02:12:34.650Z,992.08
2023-04-13T02:13:34.637Z,992.11
2023-04-13T02:14:34.619Z,992.03
2023-04-13T02:15:35.276Z,992.09
2023-04-13T02:16:35.330Z,992.07
2023-04-13T02:17:34.612Z,992.07
2023-04-13T02:18:34.570Z,992.00
2023-04-13T02:19:34.572Z,992.03
2023-04-13T02:20:34.572Z,992.03
2023-04-13T02:21:34.545Z,992.06
2023-04-13T02:22:34.542Z,991.97
2023-04-13T02:23:34.537Z,991.96
2023-04-13T02:24:34.525Z,992.01
2023-04-13T02:25:34.545Z,991.95
2023-04-13T02:26:35.176Z,992.01
2023-04-13T02:27:35.165Z,991.92
2023-04-13T02:28:35.153Z,991.90
2023-04-13T02:29:34.515Z,991.98
2023-04-13T02:30:34.443Z,991.80
2023-04-13T02:31:34.434Z,991.88
2023-04-13T02:32:34.442Z,991.92
2023-04-13T02:33:34.441Z,991.87
2023-04-13T02:34:34.414Z,991.85
2023-04-13T02:35:35.655Z,991.88
2023-04-13T02:36:34.386Z,991.84
2023-04-13T02:37:34.396Z,991.83
2023-04-13T02:38:35.055Z,991.80
2023-04-13T02:39:34.405Z,991.84
2023-04-13T02:40:35.025Z,991.82
2023-04-13T02:41:34.331Z,991.80
2023-04-13T02:42:34.309Z,991.82
2023-04-13T02:43:34.402Z,991.88
2023-04-13T02:44:34.977Z,991.79
2023-04-13T02:45:34.989Z,991.84
2023-04-13T02:46:34.955Z,991.80
2023-04-13T02:47:34.311Z,991.76
2023-04-13T02:48:34.263Z,991.82
2023-04-13T02:49:34.256Z,991.82
2023-04-13T02:50:34.913Z,991.80
2023-04-13T02:51:34.903Z,991.85
2023-04-13T02:52:34.190Z,991.81
2023-04-13T02:53:34.195Z,991.84
2023-04-13T02:54:34.187Z,991.84
2023-04-13T02:55:34.160Z,991.85
2023-04-13T02:56:34.164Z,991.84
2023-04-13T02:57:34.835Z,991.85
2023-04-13T02:58:34.826Z,991.88
2023-04-13T02:59:34.139Z,991.89
2023-04-13T03:00:34.136Z,991.87
2023-04-13T03:01:34.184Z,991.94
2023-04-13T03:02:34.238Z,991.89
2023-04-13T03:03:34.777Z,991.83
2023-04-13T03:04:34.789Z,991.84
2023-04-13T03:05:34.144Z,991.91
2023-04-13T03:06:34.128Z,991.90
2023-04-13T03:07:34.063Z,991.85
2023-04-13T03:08:34.716Z,991.88
2023-04-13T03:09:34.082Z,991.92
2023-04-13T03:10:34.701Z,991.91
2023-04-13T03:11:34.682Z,991.88
2023-04-13T03:12:33.996Z,991.92
2023-04-13T03:13:34.682Z,991.93
2023-04-13T03:14:34.039Z,991.79
2023-04-13T03:15:33.955Z,991.95
2023-04-13T03:16:34.028Z,991.97
2023-04-13T03:17:34.699Z,991.93
2023-04-13T03:18:34.875Z,991.97
2023-04-13T03:19:33.985Z,991.86
2023-04-13T03:20:34.860Z,991.89
2023-04-13T03:21:33.897Z,991.93
2023-04-13T03:22:33.875Z,991.96
2023-04-13T03:23:34.551Z,991.92
2023-04-13T03:24:34.543Z,991.97
2023-04-13T03:25:34.538Z,991.92
2023-04-13T03:26:34.521Z,991.97
2023-04-13T03:27:34.525Z,991.97
2023-04-13T03:28:34.500Z,991.92
2023-04-13T03:29:34.503Z,991.96
2023-04-13T03:30:34.492Z,991.90
2023-04-13T03:31:34.765Z,991.93
2023-04-13T03:32:34.885Z,991.93
2023-04-13T03:33:34.444Z,991.91
2023-04-13T03:34:34.419Z,991.91
2023-04-13T03:35:34.424Z,991.94
2023-04-13T03:36:34.702Z,991.91
2023-04-13T03:37:34.659Z,991.91
2023-04-13T03:38:34.403Z,991.90
2023-04-13T03:39:34.657Z,991.89
2023-04-13T03:40:33.697Z,991.92
2023-04-13T03:41:34.625Z,991.96
2023-04-13T03:42:34.348Z,991.89
2023-04-13T03:43:34.336Z,991.92
2023-04-13T03:44:34.327Z,991.89
2023-04-13T03:45:34.320Z,991.95
2023-04-13T03:46:33.699Z,991.98
2023-04-13T03:47:34.321Z,991.95
2023-04-13T03:48:34.571Z,991.92
2023-04-13T03:49:33.868Z,991.99
2023-04-13T03:50:34.596Z,992.00
2023-04-13T03:51:34.257Z,991.97
2023-04-13T03:52:34.298Z,991.94
2023-04-13T03:53:34.266Z,991.98
2023-04-13T03:54:34.245Z,992.01
2023-04-13T03:55:33.626Z,991.96
2023-04-13T03:56:34.350Z,991.95
2023-04-13T03:57:34.298Z,991.99
2023-04-13T03:58:33.489Z,992.00
2023-04-13T03:59:34.229Z,991.90
2023-04-13T04:00:34.193Z,992.08
2023-04-13T04:01:34.297Z,991.97
2023-04-13T04:02:34.289Z,991.99
2023-04-13T04:03:33.528Z,992.08
2023-04-13T04:04:33.463Z,992.10
2023-04-13T04:05:34.370Z,992.05
2023-04-13T04:06:34.353Z,992.10
2023-04-13T04:07:34.079Z,991.97
2023-04-13T04:08:34.068Z,992.17
2023-04-13T04:09:34.036Z,992.13
2023-04-13T04:10:34.050Z,992.18
2023-04-13T04:11:34.312Z,992.22
2023-04-13T04:12:33.341Z,992.18
2023-04-13T04:13:34.020Z,992.15
2023-04-13T04:14:34.006Z,992.16
2023-04-13T04:15:33.329Z,992.14
2023-04-13T04:16:33.998Z,992.06
2023-04-13T04:17:33.309Z,992.08
2023-04-13T04:18:33.952Z,992.16
2023-04-13T04:19:33.945Z,991.97
2023-04-13T04:20:33.271Z,992.10
2023-04-13T04:21:33.258Z,992.25
2023-04-13T04:22:33.920Z,992.19
2023-04-13T04:23:34.284Z,992.23
2023-04-13T04:24:34.161Z,992.14
2023-04-13T04:25:33.925Z,992.22
2023-04-13T04:26:34.141Z,992.27
2023-04-13T04:27:33.939Z,992.23
2023-04-13T04:28:33.836Z,992.24
2023-04-13T04:29:34.352Z,992.26
2023-04-13T04:30:34.274Z,992.30
2023-04-13T04:31:36.160Z,992.28
2023-04-13T04:32:34.154Z,992.29
2023-04-13T04:33:33.778Z,992.29
2023-04-13T04:34:33.794Z,992.31
2023-04-13T04:35:33.796Z,992.30
2023-04-13T04:36:33.764Z,992.38
2023-04-13T04:37:33.078Z,992.40
2023-04-13T04:38:33.110Z,992.44
2023-04-13T04:39:33.150Z,992.45
2023-04-13T04:40:33.751Z,992.46
2023-04-13T04:41:33.055Z,992.49
2023-04-13T04:42:33.703Z,992.51
2023-04-13T04:43:33.666Z,992.56
2023-04-13T04:44:33.961Z,992.53
2023-04-13T04:45:33.729Z,992.56
2023-04-13T04:46:33.664Z,992.58
2023-04-13T04:47:33.937Z,992.52
2023-04-13T04:48:33.620Z,992.54
2023-04-13T04:49:33.903Z,992.57
2023-04-13T04:50:33.624Z,992.63
2023-04-13T04:51:33.606Z,992.64
2023-04-13T04:52:33.871Z,992.69
2023-04-13T04:53:33.879Z,992.71
2023-04-13T04:54:33.874Z,992.72
2023-04-13T04:55:33.824Z,992.74
2023-04-13T04:56:33.557Z,992.74
2023-04-13T04:57:33.835Z,992.73
2023-04-13T04:58:33.509Z,992.72
2023-04-13T04:59:33.520Z,992.87
2023-04-13T05:00:33.515Z,992.89
2023-04-13T05:01:33.579Z,992.90
2023-04-13T05:02:33.619Z,993.05
2023-04-13T05:03:32.869Z,993.01
2023-04-13T05:04:33.745Z,993.02
2023-04-13T05:05:32.830Z,992.96
2023-04-13T05:06:32.774Z,993.02
2023-04-13T05:07:32.775Z,993.12
2023-04-13T05:08:33.410Z,993.08
2023-04-13T05:09:33.415Z,993.12
2023-04-13T05:10:33.680Z,993.14
2023-04-13T05:11:33.659Z,993.18
2023-04-13T05:12:35.333Z,993.22
2023-04-13T05:13:33.649Z,993.21
2023-04-13T05:14:33.365Z,993.15
2023-04-13T05:15:33.354Z,993.27
2023-04-13T05:16:33.452Z,993.25
2023-04-13T05:17:33.361Z,993.24
2023-04-13T05:18:33.304Z,993.25
2023-04-13T05:19:33.309Z,993.27
2023-04-13T05:20:33.297Z,993.35
2023-04-13T05:21:33.325Z,993.39
2023-04-13T05:22:34.554Z,993.37
2023-04-13T05:23:33.541Z,993.37
2023-04-13T05:24:32.674Z,993.40
2023-04-13T05:25:33.246Z,993.46
2023-04-13T05:26:33.539Z,993.48
2023-04-13T05:27:33.225Z,993.48
2023-04-13T05:28:33.208Z,993.46
2023-04-13T05:29:33.210Z,993.51
2023-04-13T05:30:32.540Z,993.46
2023-04-13T05:31:32.571Z,993.53
2023-04-13T05:32:33.185Z,993.53
2023-04-13T05:33:33.161Z,993.53
2023-04-13T05:34:33.149Z,993.54
2023-04-13T05:35:33.140Z,993.56
2023-04-13T05:36:33.130Z,993.55
2023-04-13T05:37:33.101Z,993.59
2023-04-13T05:38:33.377Z,993.65
2023-04-13T05:39:33.353Z,993.74
2023-04-13T05:40:32.409Z,993.71
2023-04-13T05:41:33.072Z,993.71
2023-04-13T05:42:33.055Z,993.71
2023-04-13T05:43:33.333Z,993.77
2023-04-13T05:44:33.047Z,993.75
2023-04-13T05:45:32.371Z,993.75
2023-04-13T05:46:33.026Z,993.82
2023-04-13T05:47:33.019Z,993.83
2023-04-13T05:48:34.296Z,993.87
2023-04-13T05:49:32.305Z,993.95
2023-04-13T05:50:32.337Z,993.93
2023-04-13T05:51:32.310Z,993.93
2023-04-13T05:52:34.261Z,994.00
2023-04-13T05:53:32.945Z,994.11
2023-04-13T05:54:32.259Z,993.96
2023-04-13T05:55:32.243Z,993.98
2023-04-13T05:56:32.919Z,993.98
2023-04-13T05:57:32.249Z,993.98
2023-04-13T05:58:32.228Z,993.99
2023-04-13T05:59:32.877Z,994.06
2023-04-13T06:00:32.290Z,994.10
2023-04-13T06:01:32.875Z,994.03
2023-04-13T06:02:33.018Z,994.14
2023-04-13T06:03:33.352Z,994.10
2023-04-13T06:04:33.264Z,994.25
2023-04-13T06:05:32.812Z,994.16
2023-04-13T06:06:33.081Z,994.35
2023-04-13T06:07:33.088Z,994.26
2023-04-13T06:08:32.881Z,994.28
2023-04-13T06:09:32.845Z,994.36
2023-04-13T06:10:33.021Z,994.34
2023-04-13T06:11:33.022Z,994.24
2023-04-13T06:12:33.022Z,994.20
2023-04-13T06:13:32.731Z,994.20
2023-04-13T06:14:32.724Z,994.26
2023-04-13T06:15:32.708Z,994.30
2023-04-13T06:16:32.063Z,994.39
2023-04-13T06:17:32.746Z,994.43
2023-04-13T06:18:32.672Z,994.47
2023-04-13T06:19:32.694Z,994.51
2023-04-13T06:20:32.662Z,994.49
2023-04-13T06:21:32.660Z,994.49
2023-04-13T06:22:32.614Z,994.47
2023-04-13T06:23:32.623Z,994.48
2023-04-13T06:24:31.939Z,994.48
2023-04-13T06:25:32.606Z,994.45
2023-04-13T06:26:32.589Z,994.55
2023-04-13T06:27:32.860Z,994.50
2023-04-13T06:28:32.578Z,994.47
2023-04-13T06:29:32.556Z,994.59
2023-04-13T06:30:31.910Z,994.65
2023-04-13T06:31:32.577Z,994.72
2023-04-13T06:32:31.875Z,994.77
2023-04-13T06:33:31.823Z,994.73
2023-04-13T06:34:31.819Z,994.73
2023-04-13T06:35:31.811Z,994.78
2023-04-13T06:36:31.847Z,994.86
2023-04-13T06:37:32.449Z,994.79
2023-04-13T06:38:31.789Z,994.68
2023-04-13T06:39:32.922Z,994.68
2023-04-13T06:40:32.442Z,994.74
2023-04-13T06:41:31.758Z,994.70
2023-04-13T06:42:31.771Z,994.63
2023-04-13T06:43:32.412Z,994.61
2023-04-13T06:44:32.395Z,994.64
2023-04-13T06:45:31.713Z,994.63
2023-04-13T06:46:32.428Z,994.78
2023-04-13T06:47:32.462Z,994.62
2023-04-13T06:48:32.365Z,994.62
2023-04-13T06:49:32.340Z,994.74
2023-04-13T06:50:32.329Z,994.69
2023-04-13T06:51:32.321Z,994.68
2023-04-13T06:52:32.300Z,994.67
2023-04-13T06:53:31.628Z,994.69
2023-04-13T06:54:31.619Z,994.70
2023-04-13T06:55:32.291Z,994.72
2023-04-13T06:56:32.266Z,994.79
2023-04-13T06:57:31.588Z,994.90
2023-04-13T06:58:31.564Z,994.94
2023-04-13T06:59:32.235Z,995.01
2023-04-13T07:00:31.629Z,994.85
2023-04-13T07:01:32.319Z,994.88
2023-04-13T07:02:31.702Z,994.92
2023-04-13T07:03:32.412Z,994.91
2023-04-13T07:04:33.806Z,994.91
2023-04-13T07:05:32.205Z,995.19
2023-04-13T07:06:32.185Z,995.01
2023-04-13T07:07:32.128Z,995.01
2023-04-13T07:08:31.459Z,994.97
2023-04-13T07:09:32.181Z,995.02
2023-04-13T07:10:31.428Z,995.02
2023-04-13T07:11:32.109Z,995.04
2023-04-13T07:12:31.437Z,995.07
2023-04-13T07:13:32.080Z,995.14
2023-04-13T07:14:31.388Z,995.15
2023-04-13T07:15:31.436Z,995.07
2023-04-13T07:16:32.168Z,995.16
2023-04-13T07:17:31.444Z,995.14
2023-04-13T07:18:31.355Z,995.10
2023-04-13T07:19:31.332Z,995.18
2023-04-13T07:20:32.007Z,995.21
2023-04-13T07:21:31.317Z,995.17
2023-04-13T07:22:31.327Z,995.23
2023-04-13T07:23:31.301Z,995.26
2023-04-13T07:24:31.960Z,995.27
2023-04-13T07:25:31.997Z,995.21
2023-04-13T07:26:31.302Z,995.28
2023-04-13T07:27:31.261Z,995.26
2023-04-13T07:28:31.240Z,995.39
2023-04-13T07:29:31.912Z,995.26
2023-04-13T07:30:31.913Z,995.29
2023-04-13T07:31:31.943Z,995.38
2023-04-13T07:32:33.166Z,995.34
2023-04-13T07:33:31.882Z,995.37
2023-04-13T07:34:31.865Z,995.36
2023-04-13T07:35:31.168Z,995.42
2023-04-13T07:36:31.839Z,995.48
2023-04-13T07:37:31.190Z,995.48
2023-04-13T07:38:31.199Z,995.45
2023-04-13T07:39:31.296Z,995.42
2023-04-13T07:40:31.243Z,995.60
2023-04-13T07:41:31.775Z,995.50
2023-04-13T07:42:31.792Z,995.50
2023-04-13T07:43:31.757Z,995.57
2023-04-13T07:44:31.061Z,995.49
2023-04-13T07:45:31.057Z,995.55
2023-04-13T07:46:31.072Z,995.57
2023-04-13T07:47:31.712Z,995.52
2023-04-13T07:48:31.019Z,995.62
2023-04-13T07:49:31.689Z,995.62
2023-04-13T07:50:31.029Z,995.62
2023-04-13T07:51:30.988Z,995.60
2023-04-13T07:52:30.992Z,995.64
2023-04-13T07:53:31.659Z,995.72
2023-04-13T07:54:31.657Z,995.79
2023-04-13T07:55:30.959Z,995.75
2023-04-13T07:56:30.940Z,995.76
2023-04-13T07:57:31.591Z,995.73
2023-04-13T07:58:31.618Z,995.68
2023-04-13T07:59:31.637Z,995.74
2023-04-13T08:00:31.578Z,996.06
2023-04-13T08:01:31.560Z,995.90
2023-04-13T08:02:31.170Z,996.00
2023-04-13T08:03:31.006Z,995.86
2023-04-13T08:04:31.641Z,995.82
2023-04-13T08:05:31.783Z,995.81
2023-04-13T08:06:30.831Z,995.90
2023-04-13T08:07:31.478Z,995.83
2023-04-13T08:08:31.485Z,995.86
2023-04-13T08:09:31.473Z,995.92
2023-04-13T08:10:31.473Z,995.96
2023-04-13T08:11:30.775Z,995.93
2023-04-13T08:12:30.795Z,995.98
2023-04-13T08:13:30.761Z,995.94
2023-04-13T08:14:31.418Z,995.88
2023-04-13T08:15:30.769Z,995.94
2023-04-13T08:16:31.444Z,995.94
2023-04-13T08:17:31.404Z,995.97
2023-04-13T08:18:31.381Z,995.97
2023-04-13T08:19:30.701Z,995.97
2023-04-13T08:20:30.678Z,995.98
2023-04-13T08:21:31.348Z,996.00
2023-04-13T08:22:30.694Z,996.06
2023-04-13T08:23:31.329Z,996.01
2023-04-13T08:24:30.632Z,996.08
2023-04-13T08:25:30.634Z,996.11
2023-04-13T08:26:30.612Z,996.18
2023-04-13T08:27:31.265Z,996.19
2023-04-13T08:28:32.498Z,996.30
2023-04-13T08:29:31.268Z,996.21
2023-04-13T08:30:31.535Z,996.36
2023-04-13T08:31:31.246Z,996.36
2023-04-13T08:32:30.599Z,996.40
2023-04-13T08:33:31.228Z,996.36
2023-04-13T08:34:30.525Z,996.43
2023-04-13T08:35:31.199Z,996.36
2023-04-13T08:36:30.516Z,996.36
2023-04-13T08:37:31.484Z,996.38
2023-04-13T08:38:31.177Z,996.40
2023-04-13T08:39:30.486Z,996.42
2023-04-13T08:40:31.151Z,996.44
2023-04-13T08:41:31.137Z,996.50
2023-04-13T08:42:30.461Z,996.48
2023-04-13T08:43:30.438Z,996.48
2023-04-13T08:44:31.111Z,996.47
2023-04-13T08:45:31.164Z,996.48
2023-04-13T08:46:31.113Z,996.48
2023-04-13T08:47:31.107Z,996.54
2023-04-13T08:48:38.928Z,996.56
2023-04-13T08:49:32.047Z,996.59
2023-04-13T08:50:31.044Z,996.49
2023-04-13T08:51:31.036Z,996.57
2023-04-13T08:52:31.005Z,996.57
2023-04-13T08:53:31.009Z,996.48
2023-04-13T08:54:30.997Z,996.56
2023-04-13T08:55:30.987Z,996.49
2023-04-13T08:56:44.626Z,996.59
2023-04-13T08:57:31.954Z,996.55
2023-04-13T08:58:30.943Z,996.57
2023-04-13T08:59:30.294Z,996.60
2023-04-13T09:00:30.259Z,996.59
2023-04-13T09:01:30.306Z,996.48
2023-04-13T09:02:30.505Z,996.52
2023-04-13T09:03:30.403Z,996.54
2023-04-13T09:04:30.518Z,996.53
2023-04-13T09:05:30.171Z,996.44
2023-04-13T09:06:30.187Z,996.70
2023-04-13T09:07:30.183Z,996.63
2023-04-13T09:08:30.856Z,996.75
2023-04-13T09:09:30.830Z,996.75
2023-04-13T09:10:30.129Z,996.80
2023-04-13T09:11:30.119Z,996.85
2023-04-13T09:12:30.121Z,996.73
2023-04-13T09:13:30.823Z,996.88
2023-04-13T09:14:30.780Z,996.84
2023-04-13T09:15:30.858Z,996.92
2023-04-13T09:16:30.186Z,996.86
2023-04-13T09:17:30.283Z,996.90
2023-04-13T09:18:30.046Z,996.94
2023-04-13T09:19:30.732Z,996.93
2023-04-13T09:20:30.023Z,996.96
2023-04-13T09:21:30.700Z,996.98
2023-04-13T09:22:30.029Z,996.97
2023-04-13T09:23:30.002Z,996.98
2023-04-13T09:24:30.684Z,996.99
2023-04-13T09:25:29.990Z,997.01
2023-04-13T09:26:30.654Z,997.03
2023-04-13T09:27:30.618Z,997.00
2023-04-13T09:28:29.948Z,997.05
2023-04-13T09:29:29.964Z,996.99
2023-04-13T09:30:30.600Z,997.06
2023-04-13T09:31:30.623Z,997.10
2023-04-13T09:32:30.584Z,997.09
2023-04-13T09:33:30.589Z,997.12
2023-04-13T09:34:30.563Z,997.09
2023-04-13T09:35:29.878Z,997.10
2023-04-13T09:36:30.546Z,997.17
2023-04-13T09:37:29.855Z,997.10
2023-04-13T09:38:30.517Z,997.13
2023-04-13T09:39:30.511Z,997.27
2023-04-13T09:40:29.824Z,997.33
2023-04-13T09:41:30.476Z,997.33
2023-04-13T09:42:31.743Z,997.33
2023-04-13T09:43:30.494Z,997.27
2023-04-13T09:44:30.453Z,997.35
2023-04-13T09:45:29.757Z,997.35
2023-04-13T09:46:29.840Z,997.34
2023-04-13T09:47:29.780Z,997.39
2023-04-13T09:48:30.417Z,997.40
2023-04-13T09:49:30.396Z,997.41
2023-04-13T09:50:30.382Z,997.32
2023-04-13T09:51:30.357Z,997.39
2023-04-13T09:52:29.700Z,997.44
2023-04-13T09:53:29.685Z,997.42
2023-04-13T09:54:30.348Z,997.43
2023-04-13T09:55:30.330Z,997.45
2023-04-13T09:56:29.640Z,997.45
2023-04-13T09:57:30.322Z,997.46
2023-04-13T09:58:29.888Z,997.48
2023-04-13T09:59:30.294Z,997.49
2023-04-13T10:00:29.659Z,997.54
2023-04-13T10:01:30.290Z,997.50
2023-04-13T10:02:29.835Z,997.54
2023-04-13T10:03:29.672Z,997.48
2023-04-13T10:04:29.599Z,997.50
2023-04-13T10:05:29.595Z,997.51
2023-04-13T10:06:29.659Z,997.55
2023-04-13T10:07:30.207Z,997.54
2023-04-13T10:08:38.207Z,997.59
2023-04-13T10:09:31.185Z,997.57
2023-04-13T10:10:29.479Z,997.58
2023-04-13T10:11:29.500Z,997.61
2023-04-13T10:12:30.149Z,997.61
2023-04-13T10:13:30.137Z,997.65
2023-04-13T10:14:29.441Z,997.62
2023-04-13T10:15:29.427Z,997.61
2023-04-13T10:16:29.467Z,997.69
2023-04-13T10:17:29.474Z,997.66
2023-04-13T10:18:29.578Z,997.69
2023-04-13T10:19:30.071Z,997.71
2023-04-13T10:20:30.058Z,997.68
2023-04-13T10:21:29.369Z,997.74
2023-04-13T10:22:29.382Z,997.62
2023-04-13T10:23:29.352Z,997.67
2023-04-13T10:24:30.079Z,997.64
2023-04-13T10:25:33.844Z,997.63
2023-04-13T10:26:29.304Z,997.60
2023-04-13T10:27:29.963Z,997.57
2023-04-13T10:28:29.290Z,997.60
2023-04-13T10:29:29.286Z,997.64
2023-04-13T10:30:29.264Z,997.62
2023-04-13T10:31:30.256Z,997.57
2023-04-13T10:32:29.940Z,997.63
2023-04-13T10:33:29.927Z,997.73
2023-04-13T10:34:29.913Z,997.81
2023-04-13T10:35:29.208Z,997.90
2023-04-13T10:36:29.865Z,997.92
2023-04-13T10:37:29.918Z,998.01
2023-04-13T10:38:29.186Z,997.97
2023-04-13T10:39:29.862Z,997.77
2023-04-13T10:40:29.846Z,997.81
2023-04-13T10:41:29.810Z,997.87
2023-04-13T10:42:30.376Z,997.77
2023-04-13T10:43:29.134Z,997.80
2023-04-13T10:44:29.104Z,997.83
2023-04-13T10:45:29.793Z,997.88
2023-04-13T10:46:29.815Z,997.87
2023-04-13T10:47:29.812Z,997.81
2023-04-13T10:48:29.857Z,997.86
2023-04-13T10:49:29.740Z,997.79
2023-04-13T10:50:29.060Z,997.85
2023-04-13T10:51:29.056Z,998.00
2023-04-13T10:52:29.719Z,997.89
2023-04-13T10:53:29.701Z,997.99
2023-04-13T10:54:29.005Z,997.98
2023-04-13T10:55:29.011Z,997.88
2023-04-13T10:56:29.001Z,997.87
2023-04-13T10:57:28.993Z,997.83
2023-04-13T10:58:31.932Z,997.92
2023-04-13T10:59:29.640Z,997.94
2023-04-13T11:00:42.312Z,997.99
2023-04-13T11:01:29.932Z,997.97
2023-04-13T11:02:29.028Z,997.98
2023-04-13T11:03:29.127Z,998.01
2023-04-13T11:04:29.678Z,998.02
2023-04-13T11:05:28.950Z,998.04
2023-04-13T11:06:29.560Z,997.97
2023-04-13T11:07:29.570Z,998.02
2023-04-13T11:08:28.876Z,997.94
2023-04-13T11:09:29.540Z,998.03
2023-04-13T11:10:29.528Z,998.04
2023-04-13T11:11:29.515Z,998.08
2023-04-13T11:12:29.489Z,998.05
2023-04-13T11:13:29.938Z,998.18
2023-04-13T11:14:29.719Z,998.05
2023-04-13T11:15:29.757Z,998.20
2023-04-13T11:16:29.508Z,998.18
2023-04-13T11:17:29.631Z,998.24
2023-04-13T11:18:29.741Z,998.16
2023-04-13T11:19:29.722Z,998.11
2023-04-13T11:20:29.411Z,998.16
2023-04-13T11:21:29.386Z,998.12
2023-04-13T11:22:29.397Z,998.22
2023-04-13T11:23:28.708Z,998.22
2023-04-13T11:24:28.692Z,998.27
2023-04-13T11:25:28.680Z,998.23
2023-04-13T11:26:28.709Z,998.25
2023-04-13T11:27:29.623Z,998.32
2023-04-13T11:28:29.325Z,998.32
2023-04-13T11:29:28.638Z,998.30
2023-04-13T11:30:29.309Z,998.26
2023-04-13T11:31:28.654Z,998.33
2023-04-13T11:32:29.399Z,998.39
2023-04-13T11:33:29.277Z,998.47
2023-04-13T11:34:29.321Z,998.37
2023-04-13T11:35:29.259Z,998.41
2023-04-13T11:36:29.521Z,998.46
2023-04-13T11:37:28.541Z,998.39
2023-04-13T11:38:29.220Z,998.44
2023-04-13T11:39:28.534Z,998.43
2023-04-13T11:40:28.513Z,998.49
2023-04-13T11:41:28.530Z,998.51
2023-04-13T11:42:28.494Z,998.51
2023-04-13T11:43:29.170Z,998.54
2023-04-13T11:44:28.479Z,998.51
2023-04-13T11:45:28.463Z,998.56
2023-04-13T11:46:29.153Z,998.57
2023-04-13T11:47:28.490Z,998.57
2023-04-13T11:48:28.446Z,998.60
2023-04-13T11:49:29.102Z,998.59
2023-04-13T11:50:28.408Z,998.63
2023-04-13T11:51:29.058Z,998.65
2023-04-13T11:52:28.396Z,998.69
2023-04-13T11:53:28.376Z,998.69
2023-04-13T11:54:28.371Z,998.79
2023-04-13T11:55:31.356Z,998.78
2023-04-13T11:56:30.010Z,998.81
2023-04-13T11:57:29.273Z,998.78
2023-04-13T11:58:29.269Z,998.87
2023-04-13T11:59:29.275Z,998.84
2023-04-13T12:00:29.252Z,998.83
2023-04-13T12:01:33.737Z,998.80
2023-04-13T12:02:29.979Z,998.92
2023-04-13T12:03:42.070Z,998.92
2023-04-13T12:04:29.397Z,998.89
2023-04-13T12:05:29.176Z,998.89
2023-04-13T12:06:29.759Z,998.92
2023-04-13T12:07:29.190Z,998.92
2023-04-13T12:08:29.494Z,998.99
2023-04-13T12:09:54.554Z,998.99
2023-04-13T12:10:39.511Z,998.99
2023-04-13T12:12:51.107Z,998.91
2023-04-13T12:14:49.137Z,998.94
2023-04-13T12:15:43.545Z,998.88
2023-04-13T12:17:39.086Z,999.00
2023-04-13T12:18:36.591Z,999.01
2023-04-13T12:19:32.868Z,998.88
2023-04-13T12:20:28.136Z,998.87
2023-04-13T12:21:29.067Z,999.01
2023-04-13T12:22:30.098Z,999.02
2023-04-13T12:23:28.875Z,999.10
2023-04-13T12:24:29.356Z,999.02
2023-04-13T12:25:35.484Z,999.05
2023-04-13T12:26:59.351Z,999.07
2023-04-13T12:27:30.433Z,999.16
2023-04-13T12:28:28.685Z,999.16
2023-04-13T12:29:28.674Z,999.23
2023-04-13T12:30:28.663Z,999.23
2023-04-13T12:31:28.962Z,999.19